sensor_id;sensor_type;location;lat;lon;timestamp;P1;durP1;ratioP1;P2;durP2;ratioP2
16624;SDS011;8426;48.496;9.098;2022-11-15T00:01:15;6.30;;;3.67;;
16624;SDS011;8426;48.496;9.098;2022-11-15T00:06:21;6.33;;;3.40;;
16624;SDS011;8426;48.496;9.098;2022-11-15T00:11:26;4.70;;;3.10;;
16624;SDS011;8426;48.496;9.098;2022-11-15T00:16:29;6.30;;;3.37;;
16624;SDS011;8426;48.496;9.098;2022-11-15T00:21:33;5.13;;;2.87;;
16624;SDS011;8426;48.496;9.098;2022-11-15T00:26:37;5.10;;;3.07;;
16624;SDS011;8426;48.496;9.098;2022-11-15T00:31:40;4.20;;;2.50;;
16624;SDS011;8426;48.496;9.098;2022-11-15T00:36:44;6.00;;;2.47;;
16624;SDS011;8426;48.496;9.098;2022-11-15T00:41:48;4.23;;;2.60;;
16624;SDS011;8426;48.496;9.098;2022-11-15T00:46:51;4.63;;;2.53;;
16624;SDS011;8426;48.496;9.098;2022-11-15T00:51:55;5.97;;;2.43;;
16624;SDS011;8426;48.496;9.098;2022-11-15T00:56:59;4.17;;;2.37;;
16624;SDS011;8426;48.496;9.098;2022-11-15T01:02:03;4.13;;;2.20;;
16624;SDS011;8426;48.496;9.098;2022-11-15T01:07:06;4.67;;;2.10;;
16624;SDS011;8426;48.496;9.098;2022-11-15T01:12:11;5.67;;;2.67;;
16624;SDS011;8426;48.496;9.098;2022-11-15T01:17:14;4.10;;;2.07;;
16624;SDS011;8426;48.496;9.098;2022-11-15T01:22:17;4.37;;;2.33;;
16624;SDS011;8426;48.496;9.098;2022-11-15T01:27:21;3.97;;;2.43;;
16624;SDS011;8426;48.496;9.098;2022-11-15T01:32:25;6.23;;;3.13;;
16624;SDS011;8426;48.496;9.098;2022-11-15T01:37:28;6.90;;;3.17;;
16624;SDS011;8426;48.496;9.098;2022-11-15T01:42:32;8.00;;;4.30;;
16624;SDS011;8426;48.496;9.098;2022-11-15T01:47:36;5.27;;;3.10;;
16624;SDS011;8426;48.496;9.098;2022-11-15T01:52:42;5.97;;;3.27;;
16624;SDS011;8426;48.496;9.098;2022-11-15T01:57:47;4.70;;;2.90;;
16624;SDS011;8426;48.496;9.098;2022-11-15T02:02:55;7.27;;;3.50;;
16624;SDS011;8426;48.496;9.098;2022-11-15T02:07:59;5.43;;;3.20;;
16624;SDS011;8426;48.496;9.098;2022-11-15T02:13:04;5.23;;;2.97;;
16624;SDS011;8426;48.496;9.098;2022-11-15T02:18:10;6.17;;;2.67;;
16624;SDS011;8426;48.496;9.098;2022-11-15T02:28:58;7.43;;;2.90;;
16624;SDS011;8426;48.496;9.098;2022-11-15T02:34:08;4.87;;;3.00;;
16624;SDS011;8426;48.496;9.098;2022-11-15T02:39:21;4.10;;;2.63;;
16624;SDS011;8426;48.496;9.098;2022-11-15T02:44:31;5.33;;;3.10;;
16624;SDS011;8426;48.496;9.098;2022-11-15T02:49:41;7.03;;;2.87;;
16624;SDS011;8426;48.496;9.098;2022-11-15T02:54:53;10.77;;;2.83;;
16624;SDS011;8426;48.496;9.098;2022-11-15T03:00:00;7.03;;;3.17;;
16624;SDS011;8426;48.496;9.098;2022-11-15T03:05:10;4.13;;;2.80;;
16624;SDS011;8426;48.496;9.098;2022-11-15T03:10:23;7.70;;;3.67;;
16624;SDS011;8426;48.496;9.098;2022-11-15T03:15:31;7.17;;;3.67;;
16624;SDS011;8426;48.496;9.098;2022-11-15T03:20:40;4.03;;;3.10;;
16624;SDS011;8426;48.496;9.098;2022-11-15T03:25:46;7.57;;;3.47;;
16624;SDS011;8426;48.496;9.098;2022-11-15T03:30:52;5.00;;;2.80;;
16624;SDS011;8426;48.496;9.098;2022-11-15T03:35:58;4.70;;;2.90;;
16624;SDS011;8426;48.496;9.098;2022-11-15T03:41:04;6.60;;;3.20;;
16624;SDS011;8426;48.496;9.098;2022-11-15T03:46:11;8.40;;;4.03;;
16624;SDS011;8426;48.496;9.098;2022-11-15T03:51:18;5.90;;;3.33;;
16624;SDS011;8426;48.496;9.098;2022-11-15T03:56:22;7.50;;;3.73;;
16624;SDS011;8426;48.496;9.098;2022-11-15T04:01:25;6.60;;;3.53;;
16624;SDS011;8426;48.496;9.098;2022-11-15T04:06:30;4.63;;;3.20;;
16624;SDS011;8426;48.496;9.098;2022-11-15T04:11:33;5.30;;;2.90;;
16624;SDS011;8426;48.496;9.098;2022-11-15T04:16:36;7.43;;;3.00;;
16624;SDS011;8426;48.496;9.098;2022-11-15T04:21:45;9.60;;;3.20;;
16624;SDS011;8426;48.496;9.098;2022-11-15T04:27:06;5.70;;;3.53;;
16624;SDS011;8426;48.496;9.098;2022-11-15T04:32:09;5.67;;;3.60;;
16624;SDS011;8426;48.496;9.098;2022-11-15T04:37:14;8.30;;;4.00;;
16624;SDS011;8426;48.496;9.098;2022-11-15T04:42:17;8.02;;;4.40;;
16624;SDS011;8426;48.496;9.098;2022-11-15T04:47:20;11.87;;;4.43;;
16624;SDS011;8426;48.496;9.098;2022-11-15T04:52:25;5.87;;;3.83;;
16624;SDS011;8426;48.496;9.098;2022-11-15T04:57:28;9.53;;;3.50;;
16624;SDS011;8426;48.496;9.098;2022-11-15T05:02:32;5.57;;;3.70;;
16624;SDS011;8426;48.496;9.098;2022-11-15T05:07:50;5.53;;;2.80;;
16624;SDS011;8426;48.496;9.098;2022-11-15T05:12:54;5.10;;;2.83;;
16624;SDS011;8426;48.496;9.098;2022-11-15T05:17:58;7.13;;;3.67;;
16624;SDS011;8426;48.496;9.098;2022-11-15T05:23:03;10.23;;;4.53;;
16624;SDS011;8426;48.496;9.098;2022-11-15T05:28:06;7.93;;;4.37;;
16624;SDS011;8426;48.496;9.098;2022-11-15T05:33:10;9.10;;;4.63;;
16624;SDS011;8426;48.496;9.098;2022-11-15T05:38:14;6.67;;;4.00;;
16624;SDS011;8426;48.496;9.098;2022-11-15T05:43:18;7.05;;;4.43;;
16624;SDS011;8426;48.496;9.098;2022-11-15T05:48:21;10.73;;;4.60;;
16624;SDS011;8426;48.496;9.098;2022-11-15T05:53:26;8.90;;;4.97;;
16624;SDS011;8426;48.496;9.098;2022-11-15T05:58:30;11.67;;;4.60;;
16624;SDS011;8426;48.496;9.098;2022-11-15T06:03:34;9.67;;;4.60;;
16624;SDS011;8426;48.496;9.098;2022-11-15T06:08:38;9.93;;;3.43;;
16624;SDS011;8426;48.496;9.098;2022-11-15T06:13:42;7.30;;;3.53;;
16624;SDS011;8426;48.496;9.098;2022-11-15T06:18:47;7.47;;;3.47;;
16624;SDS011;8426;48.496;9.098;2022-11-15T06:23:51;7.20;;;4.07;;
16624;SDS011;8426;48.496;9.098;2022-11-15T06:28:55;6.70;;;3.73;;
16624;SDS011;8426;48.496;9.098;2022-11-15T06:33:58;5.17;;;3.10;;
16624;SDS011;8426;48.496;9.098;2022-11-15T06:39:03;7.00;;;3.80;;
16624;SDS011;8426;48.496;9.098;2022-11-15T06:44:07;7.07;;;3.33;;
16624;SDS011;8426;48.496;9.098;2022-11-15T06:49:10;4.50;;;2.63;;
16624;SDS011;8426;48.496;9.098;2022-11-15T06:54:15;5.53;;;3.20;;
16624;SDS011;8426;48.496;9.098;2022-11-15T06:59:20;7.50;;;4.10;;
16624;SDS011;8426;48.496;9.098;2022-11-15T07:04:23;9.07;;;4.50;;
16624;SDS011;8426;48.496;9.098;2022-11-15T07:09:28;8.48;;;4.90;;
16624;SDS011;8426;48.496;9.098;2022-11-15T07:14:31;10.43;;;5.22;;
16624;SDS011;8426;48.496;9.098;2022-11-15T07:19:34;10.43;;;5.10;;
16624;SDS011;8426;48.496;9.098;2022-11-15T07:24:39;7.43;;;4.25;;
16624;SDS011;8426;48.496;9.098;2022-11-15T07:29:42;8.70;;;4.70;;
16624;SDS011;8426;48.496;9.098;2022-11-15T07:34:45;8.32;;;4.88;;
16624;SDS011;8426;48.496;9.098;2022-11-15T07:39:50;10.15;;;5.85;;
16624;SDS011;8426;48.496;9.098;2022-11-15T07:44:53;10.82;;;6.05;;
16624;SDS011;8426;48.496;9.098;2022-11-15T07:49:56;10.35;;;5.28;;
16624;SDS011;8426;48.496;9.098;2022-11-15T07:55:01;11.45;;;4.93;;
16624;SDS011;8426;48.496;9.098;2022-11-15T08:00:05;9.05;;;3.97;;
16624;SDS011;8426;48.496;9.098;2022-11-15T08:05:10;6.00;;;3.25;;
16624;SDS011;8426;48.496;9.098;2022-11-15T08:10:15;5.22;;;2.80;;
16624;SDS011;8426;48.496;9.098;2022-11-15T08:15:20;3.97;;;2.50;;
16624;SDS011;8426;48.496;9.098;2022-11-15T08:20:24;4.75;;;2.80;;
16624;SDS011;8426;48.496;9.098;2022-11-15T08:25:32;8.07;;;4.10;;
16624;SDS011;8426;48.496;9.098;2022-11-15T08:30:35;6.80;;;3.22;;
16624;SDS011;8426;48.496;9.098;2022-11-15T08:35:42;10.98;;;4.60;;
16624;SDS011;8426;48.496;9.098;2022-11-15T08:40:48;6.10;;;3.83;;
16624;SDS011;8426;48.496;9.098;2022-11-15T08:45:55;8.38;;;3.22;;
16624;SDS011;8426;48.496;9.098;2022-11-15T08:50:58;5.57;;;3.05;;
16624;SDS011;8426;48.496;9.098;2022-11-15T08:56:03;7.05;;;3.58;;
16624;SDS011;8426;48.496;9.098;2022-11-15T09:01:14;6.63;;;3.10;;
16624;SDS011;8426;48.496;9.098;2022-11-15T09:06:19;4.20;;;2.92;;
16624;SDS011;8426;48.496;9.098;2022-11-15T09:11:23;6.35;;;2.38;;
16624;SDS011;8426;48.496;9.098;2022-11-15T09:16:30;7.20;;;2.90;;
16624;SDS011;8426;48.496;9.098;2022-11-15T09:21:33;8.50;;;3.60;;
16624;SDS011;8426;48.496;9.098;2022-11-15T09:26:38;6.45;;;3.13;;
16624;SDS011;8426;48.496;9.098;2022-11-15T09:31:41;5.20;;;3.10;;
16624;SDS011;8426;48.496;9.098;2022-11-15T09:36:44;8.20;;;2.60;;
16624;SDS011;8426;48.496;9.098;2022-11-15T09:41:55;4.72;;;2.83;;
16624;SDS011;8426;48.496;9.098;2022-11-15T09:47:10;4.03;;;2.40;;
16624;SDS011;8426;48.496;9.098;2022-11-15T09:52:37;3.28;;;2.20;;
16624;SDS011;8426;48.496;9.098;2022-11-15T09:57:47;8.13;;;2.33;;
16624;SDS011;8426;48.496;9.098;2022-11-15T10:02:59;3.35;;;1.77;;
16624;SDS011;8426;48.496;9.098;2022-11-15T10:08:20;5.88;;;2.03;;
16624;SDS011;8426;48.496;9.098;2022-11-15T10:13:36;4.40;;;2.20;;
16624;SDS011;8426;48.496;9.098;2022-11-15T10:18:46;4.75;;;1.63;;
16624;SDS011;8426;48.496;9.098;2022-11-15T10:23:56;3.40;;;1.85;;
16624;SDS011;8426;48.496;9.098;2022-11-15T10:29:02;3.28;;;1.88;;
16624;SDS011;8426;48.496;9.098;2022-11-15T10:34:10;4.70;;;2.00;;
16624;SDS011;8426;48.496;9.098;2022-11-15T10:39:15;3.88;;;1.90;;
16624;SDS011;8426;48.496;9.098;2022-11-15T10:44:21;4.30;;;1.67;;
16624;SDS011;8426;48.496;9.098;2022-11-15T10:49:29;4.43;;;1.63;;
16624;SDS011;8426;48.496;9.098;2022-11-15T10:54:34;3.72;;;1.40;;
16624;SDS011;8426;48.496;9.098;2022-11-15T11:04:50;3.33;;;1.35;;
16624;SDS011;8426;48.496;9.098;2022-11-15T11:10:01;2.92;;;1.50;;
16624;SDS011;8426;48.496;9.098;2022-11-15T11:15:27;2.13;;;1.20;;
16624;SDS011;8426;48.496;9.098;2022-11-15T11:20:33;5.00;;;1.40;;
16624;SDS011;8426;48.496;9.098;2022-11-15T11:25:42;2.22;;;1.10;;
16624;SDS011;8426;48.496;9.098;2022-11-15T11:30:56;3.50;;;1.38;;
16624;SDS011;8426;48.496;9.098;2022-11-15T11:36:15;2.63;;;1.40;;
16624;SDS011;8426;48.496;9.098;2022-11-15T11:41:28;5.40;;;1.50;;
16624;SDS011;8426;48.496;9.098;2022-11-15T11:46:53;3.13;;;1.20;;
16624;SDS011;8426;48.496;9.098;2022-11-15T11:52:00;2.55;;;1.27;;
16624;SDS011;8426;48.496;9.098;2022-11-15T11:57:11;3.47;;;1.88;;
16624;SDS011;8426;48.496;9.098;2022-11-15T12:02:27;3.42;;;1.85;;
16624;SDS011;8426;48.496;9.098;2022-11-15T12:07:34;3.45;;;1.50;;
16624;SDS011;8426;48.496;9.098;2022-11-15T12:12:41;4.80;;;1.40;;
16624;SDS011;8426;48.496;9.098;2022-11-15T12:17:52;2.03;;;1.20;;
16624;SDS011;8426;48.496;9.098;2022-11-15T12:22:59;3.28;;;1.70;;
16624;SDS011;8426;48.496;9.098;2022-11-15T12:28:13;3.15;;;1.25;;
16624;SDS011;8426;48.496;9.098;2022-11-15T12:33:30;4.53;;;1.90;;
16624;SDS011;8426;48.496;9.098;2022-11-15T12:38:53;2.13;;;1.40;;
16624;SDS011;8426;48.496;9.098;2022-11-15T12:43:58;3.38;;;1.33;;
16624;SDS011;8426;48.496;9.098;2022-11-15T12:49:07;2.10;;;1.48;;
16624;SDS011;8426;48.496;9.098;2022-11-15T13:00:04;4.70;;;2.20;;
16624;SDS011;8426;48.496;9.098;2022-11-15T13:16:56;6.85;;;2.58;;
16624;SDS011;8426;48.496;9.098;2022-11-15T13:22:06;7.10;;;2.95;;
16624;SDS011;8426;48.496;9.098;2022-11-15T13:27:38;6.03;;;2.80;;
16624;SDS011;8426;48.496;9.098;2022-11-15T13:32:43;4.82;;;2.60;;
16624;SDS011;8426;48.496;9.098;2022-11-15T13:37:49;8.02;;;3.85;;
16624;SDS011;8426;48.496;9.098;2022-11-15T13:42:53;8.93;;;4.20;;
16624;SDS011;8426;48.496;9.098;2022-11-15T13:47:57;10.13;;;4.45;;
16624;SDS011;8426;48.496;9.098;2022-11-15T13:53:04;8.32;;;4.20;;
16624;SDS011;8426;48.496;9.098;2022-11-15T13:58:08;5.32;;;2.67;;
16624;SDS011;8426;48.496;9.098;2022-11-15T14:03:16;11.52;;;7.53;;
16624;SDS011;8426;48.496;9.098;2022-11-15T14:08:23;10.20;;;5.70;;
16624;SDS011;8426;48.496;9.098;2022-11-15T14:13:27;22.27;;;13.88;;
16624;SDS011;8426;48.496;9.098;2022-11-15T14:18:39;15.93;;;8.27;;
16624;SDS011;8426;48.496;9.098;2022-11-15T14:23:50;14.77;;;5.15;;
16624;SDS011;8426;48.496;9.098;2022-11-15T14:28:53;9.70;;;4.78;;
16624;SDS011;8426;48.496;9.098;2022-11-15T14:33:56;8.88;;;4.18;;
16624;SDS011;8426;48.496;9.098;2022-11-15T14:39:01;9.68;;;5.10;;
16624;SDS011;8426;48.496;9.098;2022-11-15T14:44:09;7.68;;;3.80;;
16624;SDS011;8426;48.496;9.098;2022-11-15T14:49:19;9.27;;;4.57;;
16624;SDS011;8426;48.496;9.098;2022-11-15T14:54:24;22.00;;;11.50;;
16624;SDS011;8426;48.496;9.098;2022-11-15T14:59:28;20.85;;;9.30;;
16624;SDS011;8426;48.496;9.098;2022-11-15T15:04:31;14.98;;;7.38;;
16624;SDS011;8426;48.496;9.098;2022-11-15T15:09:35;25.80;;;11.07;;
16624;SDS011;8426;48.496;9.098;2022-11-15T15:14:39;27.95;;;12.30;;
16624;SDS011;8426;48.496;9.098;2022-11-15T15:19:42;10.63;;;5.55;;
16624;SDS011;8426;48.496;9.098;2022-11-15T15:24:47;9.65;;;4.95;;
16624;SDS011;8426;48.496;9.098;2022-11-15T15:29:51;13.27;;;4.50;;
16624;SDS011;8426;48.496;9.098;2022-11-15T15:34:57;8.18;;;4.63;;
16624;SDS011;8426;48.496;9.098;2022-11-15T15:40:08;9.55;;;4.95;;
16624;SDS011;8426;48.496;9.098;2022-11-15T15:45:16;17.20;;;8.27;;
16624;SDS011;8426;48.496;9.098;2022-11-15T15:50:21;15.18;;;8.10;;
16624;SDS011;8426;48.496;9.098;2022-11-15T15:55:28;9.50;;;6.00;;
16624;SDS011;8426;48.496;9.098;2022-11-15T16:00:32;11.43;;;4.97;;
16624;SDS011;8426;48.496;9.098;2022-11-15T16:05:37;8.63;;;4.32;;
16624;SDS011;8426;48.496;9.098;2022-11-15T16:10:44;10.07;;;5.88;;
16624;SDS011;8426;48.496;9.098;2022-11-15T16:15:49;12.73;;;6.60;;
16624;SDS011;8426;48.496;9.098;2022-11-15T16:20:55;9.77;;;5.15;;
16624;SDS011;8426;48.496;9.098;2022-11-15T16:26:00;12.98;;;6.28;;
16624;SDS011;8426;48.496;9.098;2022-11-15T16:31:05;21.65;;;9.65;;
16624;SDS011;8426;48.496;9.098;2022-11-15T16:36:17;19.45;;;9.98;;
16624;SDS011;8426;48.496;9.098;2022-11-15T16:41:31;18.40;;;6.05;;
16624;SDS011;8426;48.496;9.098;2022-11-15T16:46:35;8.43;;;3.83;;
16624;SDS011;8426;48.496;9.098;2022-11-15T16:51:39;7.45;;;3.00;;
16624;SDS011;8426;48.496;9.098;2022-11-15T16:56:44;4.88;;;2.83;;
16624;SDS011;8426;48.496;9.098;2022-11-15T17:01:48;4.15;;;2.42;;
16624;SDS011;8426;48.496;9.098;2022-11-15T17:06:55;5.47;;;3.03;;
16624;SDS011;8426;48.496;9.098;2022-11-15T17:12:00;4.35;;;2.65;;
16624;SDS011;8426;48.496;9.098;2022-11-15T17:17:03;7.43;;;3.75;;
16624;SDS011;8426;48.496;9.098;2022-11-15T17:22:07;7.05;;;3.38;;
16624;SDS011;8426;48.496;9.098;2022-11-15T17:27:12;6.30;;;3.38;;
16624;SDS011;8426;48.496;9.098;2022-11-15T17:32:16;8.00;;;3.90;;
16624;SDS011;8426;48.496;9.098;2022-11-15T17:37:19;10.02;;;4.63;;
16624;SDS011;8426;48.496;9.098;2022-11-15T17:42:24;8.43;;;4.32;;
16624;SDS011;8426;48.496;9.098;2022-11-15T17:47:28;6.35;;;3.65;;
16624;SDS011;8426;48.496;9.098;2022-11-15T17:52:31;13.40;;;4.68;;
16624;SDS011;8426;48.496;9.098;2022-11-15T17:57:37;13.35;;;3.33;;
16624;SDS011;8426;48.496;9.098;2022-11-15T18:02:41;4.00;;;2.55;;
16624;SDS011;8426;48.496;9.098;2022-11-15T18:07:44;4.00;;;2.47;;
16624;SDS011;8426;48.496;9.098;2022-11-15T18:12:49;6.13;;;2.40;;
16624;SDS011;8426;48.496;9.098;2022-11-15T18:17:53;5.60;;;2.35;;
16624;SDS011;8426;48.496;9.098;2022-11-15T18:23:01;2.75;;;1.85;;
16624;SDS011;8426;48.496;9.098;2022-11-15T18:28:06;3.95;;;2.00;;
16624;SDS011;8426;48.496;9.098;2022-11-15T18:33:11;3.75;;;1.88;;
16624;SDS011;8426;48.496;9.098;2022-11-15T18:38:14;3.50;;;1.88;;
16624;SDS011;8426;48.496;9.098;2022-11-15T18:43:19;3.17;;;1.98;;
16624;SDS011;8426;48.496;9.098;2022-11-15T18:48:22;3.95;;;1.73;;
16624;SDS011;8426;48.496;9.098;2022-11-15T18:53:26;3.30;;;2.08;;
16624;SDS011;8426;48.496;9.098;2022-11-15T18:58:40;3.58;;;1.77;;
16624;SDS011;8426;48.496;9.098;2022-11-15T19:03:45;6.15;;;3.17;;
16624;SDS011;8426;48.496;9.098;2022-11-15T19:08:49;9.13;;;4.75;;
16624;SDS011;8426;48.496;9.098;2022-11-15T19:13:58;18.48;;;6.35;;
16624;SDS011;8426;48.496;9.098;2022-11-15T19:19:04;9.05;;;4.03;;
16624;SDS011;8426;48.496;9.098;2022-11-15T19:24:08;9.85;;;3.00;;
16624;SDS011;8426;48.496;9.098;2022-11-15T19:29:14;6.05;;;2.63;;
16624;SDS011;8426;48.496;9.098;2022-11-15T19:34:21;2.65;;;1.50;;
16624;SDS011;8426;48.496;9.098;2022-11-15T19:39:24;5.13;;;2.03;;
16624;SDS011;8426;48.496;9.098;2022-11-15T19:44:29;2.42;;;1.40;;
16624;SDS011;8426;48.496;9.098;2022-11-15T19:49:32;4.10;;;2.20;;
16624;SDS011;8426;48.496;9.098;2022-11-15T19:54:36;5.38;;;2.40;;
16624;SDS011;8426;48.496;9.098;2022-11-15T19:59:40;4.78;;;2.10;;
16624;SDS011;8426;48.496;9.098;2022-11-15T20:04:44;3.78;;;1.98;;
16624;SDS011;8426;48.496;9.098;2022-11-15T20:09:48;3.55;;;1.83;;
16624;SDS011;8426;48.496;9.098;2022-11-15T20:14:53;4.72;;;2.10;;
16624;SDS011;8426;48.496;9.098;2022-11-15T20:19:56;5.07;;;2.65;;
16624;SDS011;8426;48.496;9.098;2022-11-15T20:25:00;11.90;;;3.80;;
16624;SDS011;8426;48.496;9.098;2022-11-15T20:30:06;6.13;;;2.42;;
16624;SDS011;8426;48.496;9.098;2022-11-15T20:35:11;4.95;;;2.47;;
16624;SDS011;8426;48.496;9.098;2022-11-15T20:40:14;3.22;;;1.60;;
16624;SDS011;8426;48.496;9.098;2022-11-15T20:45:19;8.30;;;3.90;;
16624;SDS011;8426;48.496;9.098;2022-11-15T20:50:24;10.85;;;3.35;;
16624;SDS011;8426;48.496;9.098;2022-11-15T20:55:43;5.45;;;2.80;;
16624;SDS011;8426;48.496;9.098;2022-11-15T21:00:53;7.38;;;3.22;;
16624;SDS011;8426;48.496;9.098;2022-11-15T21:05:57;8.38;;;3.15;;
16624;SDS011;8426;48.496;9.098;2022-11-15T21:11:00;7.78;;;3.45;;
16624;SDS011;8426;48.496;9.098;2022-11-15T21:16:22;6.13;;;3.25;;
16624;SDS011;8426;48.496;9.098;2022-11-15T21:21:28;6.75;;;3.40;;
16624;SDS011;8426;48.496;9.098;2022-11-15T21:26:31;5.95;;;3.00;;
16624;SDS011;8426;48.496;9.098;2022-11-15T21:31:36;7.60;;;3.03;;
16624;SDS011;8426;48.496;9.098;2022-11-15T21:36:39;6.07;;;3.20;;
16624;SDS011;8426;48.496;9.098;2022-11-15T21:41:42;6.25;;;3.45;;
16624;SDS011;8426;48.496;9.098;2022-11-15T21:46:47;6.50;;;3.58;;
16624;SDS011;8426;48.496;9.098;2022-11-15T21:51:52;7.55;;;4.38;;
16624;SDS011;8426;48.496;9.098;2022-11-15T21:56:55;9.63;;;5.05;;
16624;SDS011;8426;48.496;9.098;2022-11-15T22:02:00;9.45;;;5.00;;
16624;SDS011;8426;48.496;9.098;2022-11-15T22:07:15;8.32;;;4.55;;
16624;SDS011;8426;48.496;9.098;2022-11-15T22:12:19;12.77;;;4.82;;
16624;SDS011;8426;48.496;9.098;2022-11-15T22:17:31;9.65;;;4.82;;
16624;SDS011;8426;48.496;9.098;2022-11-15T22:22:48;7.95;;;4.70;;
16624;SDS011;8426;48.496;9.098;2022-11-15T22:27:51;9.95;;;4.70;;
16624;SDS011;8426;48.496;9.098;2022-11-15T22:32:56;7.35;;;4.28;;
16624;SDS011;8426;48.496;9.098;2022-11-15T22:37:59;9.50;;;4.40;;
16624;SDS011;8426;48.496;9.098;2022-11-15T22:43:03;8.10;;;4.07;;
16624;SDS011;8426;48.496;9.098;2022-11-15T22:48:08;9.82;;;4.82;;
16624;SDS011;8426;48.496;9.098;2022-11-15T22:53:12;8.07;;;4.43;;
16624;SDS011;8426;48.496;9.098;2022-11-15T22:58:15;12.88;;;4.60;;
16624;SDS011;8426;48.496;9.098;2022-11-15T23:03:20;8.70;;;4.65;;
16624;SDS011;8426;48.496;9.098;2022-11-15T23:08:24;7.10;;;4.50;;
16624;SDS011;8426;48.496;9.098;2022-11-15T23:13:28;9.07;;;4.32;;
16624;SDS011;8426;48.496;9.098;2022-11-15T23:18:36;6.90;;;4.38;;
16624;SDS011;8426;48.496;9.098;2022-11-15T23:23:42;9.57;;;4.80;;
16624;SDS011;8426;48.496;9.098;2022-11-15T23:28:46;7.28;;;3.90;;
16624;SDS011;8426;48.496;9.098;2022-11-15T23:33:52;10.95;;;4.13;;
16624;SDS011;8426;48.496;9.098;2022-11-15T23:38:59;6.88;;;4.22;;
16624;SDS011;8426;48.496;9.098;2022-11-15T23:44:03;6.22;;;3.47;;
16624;SDS011;8426;48.496;9.098;2022-11-15T23:49:08;7.18;;;4.15;;
16624;SDS011;8426;48.496;9.098;2022-11-15T23:54:12;9.57;;;4.85;;
16624;SDS011;8426;48.496;9.098;2022-11-15T23:59:17;9.00;;;4.20;;
